sensor_id;sensor_type;location;lat;lon;timestamp;pressure;altitude;pressure_sealevel;temperature;humidity
25944;BME280;13742;49.306;8.636;2023-10-09T00:00:45;101063.69;;;15.92;79.97
25944;BME280;13742;49.306;8.636;2023-10-09T00:01:27;101062.23;;;15.93;80.06
25944;BME280;13742;49.306;8.636;2023-10-09T00:02:29;101067.47;;;15.92;80.07
25944;BME280;13742;49.306;8.636;2023-10-09T00:03:28;101066.73;;;15.91;80.28
25944;BME280;13742;49.306;8.636;2023-10-09T00:04:28;101071.00;;;15.92;80.16
25944;BME280;13742;49.306;8.636;2023-10-09T00:05:33;101071.52;;;15.88;80.33
25944;BME280;13742;49.306;8.636;2023-10-09T00:06:36;101073.78;;;15.87;80.57
25944;BME280;13742;49.306;8.636;2023-10-09T00:07:30;101075.87;;;15.85;80.75
25944;BME280;13742;49.306;8.636;2023-10-09T00:08:30;101076.08;;;15.81;80.95
25944;BME280;13742;49.306;8.636;2023-10-09T00:09:31;101078.45;;;15.80;80.91
25944;BME280;13742;49.306;8.636;2023-10-09T00:10:35;101075.69;;;15.77;80.71
25944;BME280;13742;49.306;8.636;2023-10-09T00:11:30;101074.42;;;15.77;80.71
25944;BME280;13742;49.306;8.636;2023-10-09T00:12:28;101073.73;;;15.76;80.51
25944;BME280;13742;49.306;8.636;2023-10-09T00:13:31;101074.23;;;15.76;80.43
25944;BME280;13742;49.306;8.636;2023-10-09T00:14:30;101073.12;;;15.76;80.59
25944;BME280;13742;49.306;8.636;2023-10-09T00:15:28;101073.56;;;15.76;80.59
25944;BME280;13742;49.306;8.636;2023-10-09T00:16:32;101074.16;;;15.75;80.43
25944;BME280;13742;49.306;8.636;2023-10-09T00:17:31;101073.03;;;15.74;80.65
25944;BME280;13742;49.306;8.636;2023-10-09T00:18:30;101068.03;;;15.73;80.24
25944;BME280;13742;49.306;8.636;2023-10-09T00:19:33;101073.34;;;15.72;80.44
25944;BME280;13742;49.306;8.636;2023-10-09T00:20:40;101071.48;;;15.71;80.41
25944;BME280;13742;49.306;8.636;2023-10-09T00:21:34;101071.20;;;15.70;80.57
25944;BME280;13742;49.306;8.636;2023-10-09T00:22:28;101069.36;;;15.69;80.60
25944;BME280;13742;49.306;8.636;2023-10-09T00:23:27;101067.56;;;15.68;80.48
25944;BME280;13742;49.306;8.636;2023-10-09T00:24:28;101071.28;;;15.69;80.47
25944;BME280;13742;49.306;8.636;2023-10-09T00:25:30;101068.63;;;15.68;80.54
25944;BME280;13742;49.306;8.636;2023-10-09T00:26:31;101067.72;;;15.68;80.41
25944;BME280;13742;49.306;8.636;2023-10-09T00:27:31;101066.87;;;15.67;80.43
25944;BME280;13742;49.306;8.636;2023-10-09T00:28:27;101066.08;;;15.65;80.45
25944;BME280;13742;49.306;8.636;2023-10-09T00:29:34;101066.34;;;15.65;80.70
25944;BME280;13742;49.306;8.636;2023-10-09T00:30:29;101066.50;;;15.65;80.54
25944;BME280;13742;49.306;8.636;2023-10-09T00:31:33;101065.75;;;15.65;80.62
25944;BME280;13742;49.306;8.636;2023-10-09T00:32:32;101063.33;;;15.64;80.24
25944;BME280;13742;49.306;8.636;2023-10-09T00:33:29;101061.09;;;15.63;80.53
25944;BME280;13742;49.306;8.636;2023-10-09T00:34:27;101059.53;;;15.62;80.44
25944;BME280;13742;49.306;8.636;2023-10-09T00:35:36;101056.52;;;15.61;80.50
25944;BME280;13742;49.306;8.636;2023-10-09T00:36:28;101052.45;;;15.59;80.77
25944;BME280;13742;49.306;8.636;2023-10-09T00:37:34;101053.87;;;15.58;80.91
25944;BME280;13742;49.306;8.636;2023-10-09T00:38:33;101056.13;;;15.57;81.03
25944;BME280;13742;49.306;8.636;2023-10-09T00:39:32;101051.72;;;15.55;80.93
25944;BME280;13742;49.306;8.636;2023-10-09T00:40:31;101052.28;;;15.52;80.93
25944;BME280;13742;49.306;8.636;2023-10-09T00:41:29;101055.48;;;15.51;81.26
25944;BME280;13742;49.306;8.636;2023-10-09T00:42:29;101051.46;;;15.49;81.47
25944;BME280;13742;49.306;8.636;2023-10-09T00:43:30;101050.63;;;15.49;81.44
25944;BME280;13742;49.306;8.636;2023-10-09T00:44:38;101050.37;;;15.50;81.12
25944;BME280;13742;49.306;8.636;2023-10-09T00:45:32;101049.78;;;15.48;81.10
25944;BME280;13742;49.306;8.636;2023-10-09T00:46:27;101053.28;;;15.48;80.81
25944;BME280;13742;49.306;8.636;2023-10-09T00:47:34;101051.70;;;15.46;80.74
25944;BME280;13742;49.306;8.636;2023-10-09T00:48:31;101052.09;;;15.46;80.69
25944;BME280;13742;49.306;8.636;2023-10-09T00:49:27;101049.03;;;15.46;80.67
25944;BME280;13742;49.306;8.636;2023-10-09T00:50:27;101048.53;;;15.46;80.91
25944;BME280;13742;49.306;8.636;2023-10-09T00:51:32;101049.03;;;15.46;81.00
25944;BME280;13742;49.306;8.636;2023-10-09T00:52:32;101047.69;;;15.45;80.58
25944;BME280;13742;49.306;8.636;2023-10-09T00:53:32;101045.59;;;15.43;80.52
25944;BME280;13742;49.306;8.636;2023-10-09T00:54:35;101047.49;;;15.43;80.51
25944;BME280;13742;49.306;8.636;2023-10-09T00:55:38;101046.09;;;15.42;80.24
25944;BME280;13742;49.306;8.636;2023-10-09T00:56:38;101045.30;;;15.41;80.28
25944;BME280;13742;49.306;8.636;2023-10-09T00:57:29;101042.79;;;15.40;80.18
25944;BME280;13742;49.306;8.636;2023-10-09T00:58:31;101043.16;;;15.39;80.17
25944;BME280;13742;49.306;8.636;2023-10-09T00:59:27;101040.15;;;15.39;79.98
25944;BME280;13742;49.306;8.636;2023-10-09T01:00:32;101040.27;;;15.38;79.95
25944;BME280;13742;49.306;8.636;2023-10-09T01:01:32;101039.04;;;15.38;79.93
25944;BME280;13742;49.306;8.636;2023-10-09T01:02:35;101035.41;;;15.38;79.93
25944;BME280;13742;49.306;8.636;2023-10-09T01:03:28;101032.49;;;15.39;79.82
25944;BME280;13742;49.306;8.636;2023-10-09T01:04:29;101035.27;;;15.38;79.95
25944;BME280;13742;49.306;8.636;2023-10-09T01:05:28;101033.00;;;15.38;79.89
25944;BME280;13742;49.306;8.636;2023-10-09T01:06:28;101026.27;;;15.38;79.87
25944;BME280;13742;49.306;8.636;2023-10-09T01:07:28;101027.09;;;15.38;80.02
25944;BME280;13742;49.306;8.636;2023-10-09T01:08:45;101025.80;;;15.37;79.89
25944;BME280;13742;49.306;8.636;2023-10-09T01:09:28;101023.86;;;15.37;80.21
25944;BME280;13742;49.306;8.636;2023-10-09T01:10:43;101023.46;;;15.36;80.21
25944;BME280;13742;49.306;8.636;2023-10-09T01:11:30;101023.58;;;15.35;80.28
25944;BME280;13742;49.306;8.636;2023-10-09T01:12:28;101024.00;;;15.34;79.89
25944;BME280;13742;49.306;8.636;2023-10-09T01:13:40;101021.05;;;15.33;79.99
25944;BME280;13742;49.306;8.636;2023-10-09T01:14:27;101020.53;;;15.33;79.99
25944;BME280;13742;49.306;8.636;2023-10-09T01:15:32;101022.36;;;15.33;79.95
25944;BME280;13742;49.306;8.636;2023-10-09T01:16:31;101024.41;;;15.33;79.76
25944;BME280;13742;49.306;8.636;2023-10-09T01:17:32;101017.44;;;15.33;80.19
25944;BME280;13742;49.306;8.636;2023-10-09T01:18:36;101020.36;;;15.33;79.89
25944;BME280;13742;49.306;8.636;2023-10-09T01:19:27;101022.71;;;15.33;79.75
25944;BME280;13742;49.306;8.636;2023-10-09T01:20:31;101022.06;;;15.35;79.83
25944;BME280;13742;49.306;8.636;2023-10-09T01:21:28;101022.91;;;15.36;79.83
25944;BME280;13742;49.306;8.636;2023-10-09T01:22:27;101017.51;;;15.35;79.84
25944;BME280;13742;49.306;8.636;2023-10-09T01:23:29;101021.45;;;15.34;79.62
25944;BME280;13742;49.306;8.636;2023-10-09T01:24:28;101021.50;;;15.35;79.68
25944;BME280;13742;49.306;8.636;2023-10-09T01:25:41;101021.73;;;15.36;79.68
25944;BME280;13742;49.306;8.636;2023-10-09T01:26:36;101024.13;;;15.36;79.70
25944;BME280;13742;49.306;8.636;2023-10-09T01:27:32;101019.78;;;15.34;79.54
25944;BME280;13742;49.306;8.636;2023-10-09T01:28:28;101023.00;;;15.34;79.33
25944;BME280;13742;49.306;8.636;2023-10-09T01:29:27;101020.34;;;15.34;79.92
25944;BME280;13742;49.306;8.636;2023-10-09T01:30:28;101020.42;;;15.33;80.05
25944;BME280;13742;49.306;8.636;2023-10-09T01:31:27;101025.08;;;15.33;80.09
25944;BME280;13742;49.306;8.636;2023-10-09T01:32:27;101018.76;;;15.33;79.96
25944;BME280;13742;49.306;8.636;2023-10-09T01:33:28;101019.04;;;15.32;80.05
25944;BME280;13742;49.306;8.636;2023-10-09T01:34:33;101017.47;;;15.31;80.11
25944;BME280;13742;49.306;8.636;2023-10-09T01:35:27;101016.45;;;15.31;80.16
25944;BME280;13742;49.306;8.636;2023-10-09T01:36:32;101016.86;;;15.32;80.04
25944;BME280;13742;49.306;8.636;2023-10-09T01:37:30;101014.80;;;15.31;79.91
25944;BME280;13742;49.306;8.636;2023-10-09T01:38:32;101012.46;;;15.31;80.30
25944;BME280;13742;49.306;8.636;2023-10-09T01:39:28;101011.89;;;15.30;80.07
25944;BME280;13742;49.306;8.636;2023-10-09T01:40:37;101016.55;;;15.30;80.13
25944;BME280;13742;49.306;8.636;2023-10-09T01:41:27;101015.55;;;15.30;80.10
25944;BME280;13742;49.306;8.636;2023-10-09T01:42:45;101018.81;;;15.29;80.28
25944;BME280;13742;49.306;8.636;2023-10-09T01:43:27;101014.88;;;15.28;80.26
25944;BME280;13742;49.306;8.636;2023-10-09T01:44:29;101020.47;;;15.29;80.24
25944;BME280;13742;49.306;8.636;2023-10-09T01:45:27;101017.20;;;15.28;80.39
25944;BME280;13742;49.306;8.636;2023-10-09T01:46:27;101014.14;;;15.27;80.53
25944;BME280;13742;49.306;8.636;2023-10-09T01:47:31;101015.39;;;15.27;80.18
25944;BME280;13742;49.306;8.636;2023-10-09T01:48:27;101015.97;;;15.27;80.34
25944;BME280;13742;49.306;8.636;2023-10-09T01:49:31;101013.17;;;15.27;80.24
25944;BME280;13742;49.306;8.636;2023-10-09T01:50:30;101010.48;;;15.27;80.34
25944;BME280;13742;49.306;8.636;2023-10-09T01:51:33;101009.03;;;15.28;80.25
25944;BME280;13742;49.306;8.636;2023-10-09T01:52:28;101006.53;;;15.28;80.22
25944;BME280;13742;49.306;8.636;2023-10-09T01:53:33;101004.41;;;15.27;80.16
25944;BME280;13742;49.306;8.636;2023-10-09T01:54:32;101003.81;;;15.28;80.08
25944;BME280;13742;49.306;8.636;2023-10-09T01:55:32;101004.27;;;15.28;80.03
25944;BME280;13742;49.306;8.636;2023-10-09T01:56:28;101002.70;;;15.27;79.80
25944;BME280;13742;49.306;8.636;2023-10-09T01:57:30;100997.61;;;15.28;79.89
25944;BME280;13742;49.306;8.636;2023-10-09T01:58:32;100996.54;;;15.27;79.72
25944;BME280;13742;49.306;8.636;2023-10-09T01:59:27;100995.33;;;15.25;79.74
25944;BME280;13742;49.306;8.636;2023-10-09T02:00:29;100998.42;;;15.27;79.60
25944;BME280;13742;49.306;8.636;2023-10-09T02:01:27;100998.54;;;15.26;79.66
25944;BME280;13742;49.306;8.636;2023-10-09T02:02:31;100998.09;;;15.26;79.41
25944;BME280;13742;49.306;8.636;2023-10-09T02:03:29;100995.67;;;15.27;79.78
25944;BME280;13742;49.306;8.636;2023-10-09T02:04:27;100997.44;;;15.28;79.68
25944;BME280;13742;49.306;8.636;2023-10-09T02:05:33;100993.28;;;15.28;79.61
25944;BME280;13742;49.306;8.636;2023-10-09T02:06:32;100994.23;;;15.28;79.75
25944;BME280;13742;49.306;8.636;2023-10-09T02:07:29;100994.28;;;15.28;79.81
25944;BME280;13742;49.306;8.636;2023-10-09T02:08:27;100992.55;;;15.26;79.61
25944;BME280;13742;49.306;8.636;2023-10-09T02:09:31;100991.44;;;15.26;79.51
25944;BME280;13742;49.306;8.636;2023-10-09T02:10:33;100991.33;;;15.27;79.55
25944;BME280;13742;49.306;8.636;2023-10-09T02:11:32;100989.18;;;15.27;79.42
25944;BME280;13742;49.306;8.636;2023-10-09T02:12:33;100991.31;;;15.29;79.50
25944;BME280;13742;49.306;8.636;2023-10-09T02:13:31;100991.41;;;15.29;79.57
25944;BME280;13742;49.306;8.636;2023-10-09T02:14:27;100986.82;;;15.29;79.31
25944;BME280;13742;49.306;8.636;2023-10-09T02:15:33;100985.98;;;15.29;79.38
25944;BME280;13742;49.306;8.636;2023-10-09T02:16:32;100987.67;;;15.31;79.53
25944;BME280;13742;49.306;8.636;2023-10-09T02:17:29;100986.16;;;15.29;79.23
25944;BME280;13742;49.306;8.636;2023-10-09T02:18:42;100987.28;;;15.30;79.26
25944;BME280;13742;49.306;8.636;2023-10-09T02:19:32;100990.61;;;15.31;79.14
25944;BME280;13742;49.306;8.636;2023-10-09T02:20:30;100986.52;;;15.31;79.05
25944;BME280;13742;49.306;8.636;2023-10-09T02:21:32;100984.50;;;15.31;78.96
25944;BME280;13742;49.306;8.636;2023-10-09T02:22:27;100986.41;;;15.32;78.94
25944;BME280;13742;49.306;8.636;2023-10-09T02:23:39;100984.14;;;15.33;79.10
25944;BME280;13742;49.306;8.636;2023-10-09T02:24:43;100988.25;;;15.33;78.95
25944;BME280;13742;49.306;8.636;2023-10-09T02:25:34;100983.16;;;15.33;78.88
25944;BME280;13742;49.306;8.636;2023-10-09T02:26:40;100981.77;;;15.32;79.00
25944;BME280;13742;49.306;8.636;2023-10-09T02:27:32;100981.93;;;15.32;78.78
25944;BME280;13742;49.306;8.636;2023-10-09T02:28:33;100985.53;;;15.32;78.64
25944;BME280;13742;49.306;8.636;2023-10-09T02:29:27;100982.19;;;15.32;78.77
25944;BME280;13742;49.306;8.636;2023-10-09T02:30:29;100980.83;;;15.33;78.80
25944;BME280;13742;49.306;8.636;2023-10-09T02:31:32;100978.66;;;15.33;78.75
25944;BME280;13742;49.306;8.636;2023-10-09T02:32:28;100983.22;;;15.34;78.82
25944;BME280;13742;49.306;8.636;2023-10-09T02:33:33;100981.83;;;15.34;78.78
25944;BME280;13742;49.306;8.636;2023-10-09T02:34:28;100977.00;;;15.34;78.74
25944;BME280;13742;49.306;8.636;2023-10-09T02:35:32;100970.23;;;15.34;78.68
25944;BME280;13742;49.306;8.636;2023-10-09T02:36:28;100977.83;;;15.34;78.51
25944;BME280;13742;49.306;8.636;2023-10-09T02:37:28;100974.67;;;15.34;78.53
25944;BME280;13742;49.306;8.636;2023-10-09T02:38:27;100970.41;;;15.35;78.66
25944;BME280;13742;49.306;8.636;2023-10-09T02:39:27;100965.48;;;15.35;78.67
25944;BME280;13742;49.306;8.636;2023-10-09T02:40:32;100968.94;;;15.35;78.48
25944;BME280;13742;49.306;8.636;2023-10-09T02:41:30;100968.83;;;15.35;78.53
25944;BME280;13742;49.306;8.636;2023-10-09T02:42:28;100970.38;;;15.36;78.65
25944;BME280;13742;49.306;8.636;2023-10-09T02:43:28;100965.56;;;15.36;78.60
25944;BME280;13742;49.306;8.636;2023-10-09T02:44:30;100966.32;;;15.36;78.48
25944;BME280;13742;49.306;8.636;2023-10-09T02:45:34;100969.21;;;15.36;78.53
25944;BME280;13742;49.306;8.636;2023-10-09T02:46:30;100972.06;;;15.37;78.55
25944;BME280;13742;49.306;8.636;2023-10-09T02:47:31;100971.88;;;15.37;78.40
25944;BME280;13742;49.306;8.636;2023-10-09T02:48:30;100972.63;;;15.37;78.50
25944;BME280;13742;49.306;8.636;2023-10-09T02:49:28;100972.73;;;15.37;78.54
25944;BME280;13742;49.306;8.636;2023-10-09T02:50:34;100974.56;;;15.37;78.46
25944;BME280;13742;49.306;8.636;2023-10-09T02:51:42;100970.55;;;15.37;78.49
25944;BME280;13742;49.306;8.636;2023-10-09T02:52:33;100975.55;;;15.37;78.45
25944;BME280;13742;49.306;8.636;2023-10-09T02:53:29;100975.72;;;15.36;78.51
25944;BME280;13742;49.306;8.636;2023-10-09T02:54:34;100973.53;;;15.36;78.36
25944;BME280;13742;49.306;8.636;2023-10-09T02:55:28;100973.13;;;15.35;78.43
25944;BME280;13742;49.306;8.636;2023-10-09T02:56:37;100972.06;;;15.34;78.19
25944;BME280;13742;49.306;8.636;2023-10-09T02:57:36;100969.70;;;15.34;78.29
25944;BME280;13742;49.306;8.636;2023-10-09T02:58:28;100967.14;;;15.35;78.59
25944;BME280;13742;49.306;8.636;2023-10-09T02:59:29;100968.31;;;15.35;78.39
25944;BME280;13742;49.306;8.636;2023-10-09T03:00:31;100968.55;;;15.36;78.75
25944;BME280;13742;49.306;8.636;2023-10-09T03:01:27;100960.11;;;15.34;78.75
25944;BME280;13742;49.306;8.636;2023-10-09T03:02:31;100960.92;;;15.35;78.76
25944;BME280;13742;49.306;8.636;2023-10-09T03:03:28;100963.52;;;15.34;78.61
25944;BME280;13742;49.306;8.636;2023-10-09T03:04:31;100959.25;;;15.34;78.67
25944;BME280;13742;49.306;8.636;2023-10-09T03:05:28;100962.52;;;15.34;78.60
25944;BME280;13742;49.306;8.636;2023-10-09T03:06:31;100960.34;;;15.33;78.85
25944;BME280;13742;49.306;8.636;2023-10-09T03:07:27;100963.03;;;15.33;78.99
25944;BME280;13742;49.306;8.636;2023-10-09T03:08:27;100961.41;;;15.32;78.93
25944;BME280;13742;49.306;8.636;2023-10-09T03:09:27;100959.80;;;15.32;79.42
25944;BME280;13742;49.306;8.636;2023-10-09T03:10:27;100959.55;;;15.32;79.03
25944;BME280;13742;49.306;8.636;2023-10-09T03:11:27;100956.30;;;15.32;79.37
25944;BME280;13742;49.306;8.636;2023-10-09T03:12:28;100961.66;;;15.31;79.04
25944;BME280;13742;49.306;8.636;2023-10-09T03:13:29;100962.63;;;15.32;79.53
25944;BME280;13742;49.306;8.636;2023-10-09T03:14:29;100962.70;;;15.31;79.50
25944;BME280;13742;49.306;8.636;2023-10-09T03:15:29;100965.48;;;15.31;79.29
25944;BME280;13742;49.306;8.636;2023-10-09T03:16:28;100966.38;;;15.31;79.00
25944;BME280;13742;49.306;8.636;2023-10-09T03:17:27;100964.48;;;15.31;79.48
25944;BME280;13742;49.306;8.636;2023-10-09T03:18:28;100962.77;;;15.30;79.16
25944;BME280;13742;49.306;8.636;2023-10-09T03:19:28;100968.88;;;15.31;78.95
25944;BME280;13742;49.306;8.636;2023-10-09T03:20:27;100963.38;;;15.31;79.10
25944;BME280;13742;49.306;8.636;2023-10-09T03:21:27;100964.56;;;15.32;79.15
25944;BME280;13742;49.306;8.636;2023-10-09T03:22:27;100965.06;;;15.32;79.12
25944;BME280;13742;49.306;8.636;2023-10-09T03:23:27;100964.88;;;15.32;78.96
25944;BME280;13742;49.306;8.636;2023-10-09T03:24:27;100963.77;;;15.32;79.03
25944;BME280;13742;49.306;8.636;2023-10-09T03:25:28;100961.89;;;15.32;79.02
25944;BME280;13742;49.306;8.636;2023-10-09T03:26:27;100960.84;;;15.33;79.13
25944;BME280;13742;49.306;8.636;2023-10-09T03:27:27;100960.95;;;15.33;79.15
25944;BME280;13742;49.306;8.636;2023-10-09T03:28:27;100964.91;;;15.34;79.12
25944;BME280;13742;49.306;8.636;2023-10-09T03:29:27;100962.77;;;15.34;78.85
25944;BME280;13742;49.306;8.636;2023-10-09T03:30:27;100964.14;;;15.33;78.73
25944;BME280;13742;49.306;8.636;2023-10-09T03:31:30;100967.42;;;15.34;79.38
25944;BME280;13742;49.306;8.636;2023-10-09T03:32:27;100964.88;;;15.36;79.34
25944;BME280;13742;49.306;8.636;2023-10-09T03:33:27;100963.85;;;15.34;79.44
25944;BME280;13742;49.306;8.636;2023-10-09T03:34:28;100969.80;;;15.35;79.25
25944;BME280;13742;49.306;8.636;2023-10-09T03:35:27;100966.91;;;15.34;79.38
25944;BME280;13742;49.306;8.636;2023-10-09T03:36:29;100965.29;;;15.32;79.07
25944;BME280;13742;49.306;8.636;2023-10-09T03:37:32;100971.38;;;15.32;79.02
25944;BME280;13742;49.306;8.636;2023-10-09T03:39:32;100970.34;;;15.29;78.98
25944;BME280;13742;49.306;8.636;2023-10-09T03:40:27;100974.17;;;15.29;79.26
25944;BME280;13742;49.306;8.636;2023-10-09T03:41:29;100977.16;;;15.20;79.80
25944;BME280;13742;49.306;8.636;2023-10-09T03:42:27;100975.42;;;15.23;80.09
25944;BME280;13742;49.306;8.636;2023-10-09T03:43:35;100979.03;;;15.23;79.93
25944;BME280;13742;49.306;8.636;2023-10-09T03:44:31;100975.74;;;15.22;79.76
25944;BME280;13742;49.306;8.636;2023-10-09T03:45:31;100977.57;;;15.22;80.08
25944;BME280;13742;49.306;8.636;2023-10-09T03:46:32;100976.62;;;15.21;79.79
25944;BME280;13742;49.306;8.636;2023-10-09T03:47:27;100971.13;;;15.21;79.52
25944;BME280;13742;49.306;8.636;2023-10-09T03:48:32;100973.88;;;15.20;79.44
25944;BME280;13742;49.306;8.636;2023-10-09T03:49:29;100972.63;;;15.21;79.50
25944;BME280;13742;49.306;8.636;2023-10-09T03:50:30;100970.78;;;15.20;79.55
25944;BME280;13742;49.306;8.636;2023-10-09T03:51:27;100972.63;;;15.21;79.86
25944;BME280;13742;49.306;8.636;2023-10-09T03:52:30;100977.38;;;15.20;79.81
25944;BME280;13742;49.306;8.636;2023-10-09T03:53:30;100972.96;;;15.21;79.89
25944;BME280;13742;49.306;8.636;2023-10-09T03:54:30;100971.54;;;15.19;79.88
25944;BME280;13742;49.306;8.636;2023-10-09T03:55:28;100975.31;;;15.19;79.96
25944;BME280;13742;49.306;8.636;2023-10-09T03:56:27;100974.98;;;15.19;80.06
25944;BME280;13742;49.306;8.636;2023-10-09T03:57:27;100971.80;;;15.18;80.08
25944;BME280;13742;49.306;8.636;2023-10-09T03:58:33;100975.28;;;15.17;79.84
25944;BME280;13742;49.306;8.636;2023-10-09T03:59:30;100978.38;;;15.16;79.92
25944;BME280;13742;49.306;8.636;2023-10-09T04:00:28;100980.19;;;15.15;80.26
25944;BME280;13742;49.306;8.636;2023-10-09T04:01:37;100982.11;;;15.14;80.08
25944;BME280;13742;49.306;8.636;2023-10-09T04:02:27;100983.61;;;15.14;79.84
25944;BME280;13742;49.306;8.636;2023-10-09T04:03:27;100982.32;;;15.13;79.84
25944;BME280;13742;49.306;8.636;2023-10-09T04:04:28;100982.77;;;15.11;79.73
25944;BME280;13742;49.306;8.636;2023-10-09T04:05:28;100985.66;;;15.11;79.68
25944;BME280;13742;49.306;8.636;2023-10-09T04:06:32;100984.65;;;15.09;79.65
25944;BME280;13742;49.306;8.636;2023-10-09T04:07:28;100981.16;;;15.09;79.60
25944;BME280;13742;49.306;8.636;2023-10-09T04:08:30;100978.48;;;15.08;79.68
25944;BME280;13742;49.306;8.636;2023-10-09T04:09:28;100983.74;;;15.08;79.60
25944;BME280;13742;49.306;8.636;2023-10-09T04:10:32;100978.64;;;15.08;79.68
25944;BME280;13742;49.306;8.636;2023-10-09T04:11:27;100978.41;;;15.07;79.48
25944;BME280;13742;49.306;8.636;2023-10-09T04:12:30;100973.86;;;15.07;79.68
25944;BME280;13742;49.306;8.636;2023-10-09T04:13:33;100976.86;;;15.07;79.58
25944;BME280;13742;49.306;8.636;2023-10-09T04:14:33;100968.98;;;15.08;79.55
25944;BME280;13742;49.306;8.636;2023-10-09T04:15:30;100971.70;;;15.07;79.38
25944;BME280;13742;49.306;8.636;2023-10-09T04:16:45;100970.73;;;15.07;79.42
25944;BME280;13742;49.306;8.636;2023-10-09T04:17:32;100961.96;;;15.06;79.39
25944;BME280;13742;49.306;8.636;2023-10-09T04:18:33;100958.75;;;15.05;79.22
25944;BME280;13742;49.306;8.636;2023-10-09T04:19:27;100964.34;;;15.06;79.25
25944;BME280;13742;49.306;8.636;2023-10-09T04:20:32;100958.67;;;15.05;79.43
25944;BME280;13742;49.306;8.636;2023-10-09T04:21:32;100960.58;;;15.05;79.30
25944;BME280;13742;49.306;8.636;2023-10-09T04:22:27;100959.02;;;15.06;79.21
25944;BME280;13742;49.306;8.636;2023-10-09T04:23:32;100956.97;;;15.06;79.36
25944;BME280;13742;49.306;8.636;2023-10-09T04:24:27;100954.26;;;15.05;79.21
25944;BME280;13742;49.306;8.636;2023-10-09T04:25:29;100956.30;;;15.05;79.22
25944;BME280;13742;49.306;8.636;2023-10-09T04:26:29;100953.97;;;15.05;79.31
25944;BME280;13742;49.306;8.636;2023-10-09T04:27:35;100950.45;;;15.04;79.25
25944;BME280;13742;49.306;8.636;2023-10-09T04:28:29;100949.60;;;15.05;79.75
25944;BME280;13742;49.306;8.636;2023-10-09T04:29:27;100949.70;;;15.04;79.57
25944;BME280;13742;49.306;8.636;2023-10-09T04:30:27;100950.69;;;15.05;79.69
25944;BME280;13742;49.306;8.636;2023-10-09T04:31:31;100951.41;;;15.05;79.58
25944;BME280;13742;49.306;8.636;2023-10-09T04:32:27;100942.75;;;15.04;79.37
25944;BME280;13742;49.306;8.636;2023-10-09T04:33:32;100945.56;;;15.03;79.19
25944;BME280;13742;49.306;8.636;2023-10-09T04:34:32;100946.78;;;15.03;79.29
25944;BME280;13742;49.306;8.636;2023-10-09T04:35:29;100948.88;;;15.03;79.26
25944;BME280;13742;49.306;8.636;2023-10-09T04:36:35;100947.22;;;15.03;79.42
25944;BME280;13742;49.306;8.636;2023-10-09T04:37:32;100948.34;;;15.03;79.35
25944;BME280;13742;49.306;8.636;2023-10-09T04:38:29;100944.52;;;15.03;79.28
25944;BME280;13742;49.306;8.636;2023-10-09T04:39:45;100943.79;;;15.03;79.10
25944;BME280;13742;49.306;8.636;2023-10-09T04:40:32;100942.39;;;15.02;79.11
25944;BME280;13742;49.306;8.636;2023-10-09T04:41:27;100941.00;;;15.02;79.20
25944;BME280;13742;49.306;8.636;2023-10-09T04:42:32;100937.27;;;15.01;79.10
25944;BME280;13742;49.306;8.636;2023-10-09T04:43:27;100934.19;;;15.01;79.11
25944;BME280;13742;49.306;8.636;2023-10-09T04:44:36;100933.23;;;15.01;79.10
25944;BME280;13742;49.306;8.636;2023-10-09T04:45:36;100933.73;;;15.01;79.01
25944;BME280;13742;49.306;8.636;2023-10-09T04:46:27;100931.10;;;15.00;78.93
25944;BME280;13742;49.306;8.636;2023-10-09T04:47:36;100932.83;;;15.00;79.15
25944;BME280;13742;49.306;8.636;2023-10-09T04:48:32;100934.61;;;15.00;79.40
25944;BME280;13742;49.306;8.636;2023-10-09T04:49:27;100936.84;;;15.02;79.90
25944;BME280;13742;49.306;8.636;2023-10-09T04:50:49;100939.78;;;15.02;79.80
25944;BME280;13742;49.306;8.636;2023-10-09T04:51:32;100939.59;;;15.01;79.43
25944;BME280;13742;49.306;8.636;2023-10-09T04:52:45;100937.37;;;15.00;79.37
25944;BME280;13742;49.306;8.636;2023-10-09T04:53:28;100936.87;;;15.00;79.25
25944;BME280;13742;49.306;8.636;2023-10-09T04:54:39;100938.53;;;15.00;79.33
25944;BME280;13742;49.306;8.636;2023-10-09T04:55:34;100937.11;;;15.01;79.44
25944;BME280;13742;49.306;8.636;2023-10-09T04:56:32;100941.02;;;15.03;79.91
25944;BME280;13742;49.306;8.636;2023-10-09T04:57:27;100942.27;;;15.01;79.68
25944;BME280;13742;49.306;8.636;2023-10-09T04:58:27;100944.09;;;15.01;79.59
25944;BME280;13742;49.306;8.636;2023-10-09T04:59:27;100940.17;;;15.02;79.86
25944;BME280;13742;49.306;8.636;2023-10-09T05:00:42;100940.05;;;15.01;79.81
25944;BME280;13742;49.306;8.636;2023-10-09T05:01:36;100935.11;;;15.00;79.84
25944;BME280;13742;49.306;8.636;2023-10-09T05:02:36;100939.48;;;15.00;80.22
25944;BME280;13742;49.306;8.636;2023-10-09T05:03:32;100939.41;;;14.99;80.38
25944;BME280;13742;49.306;8.636;2023-10-09T05:04:39;100941.56;;;14.99;80.05
25944;BME280;13742;49.306;8.636;2023-10-09T05:05:32;100943.21;;;14.98;80.01
25944;BME280;13742;49.306;8.636;2023-10-09T05:06:32;100948.98;;;14.98;80.31
25944;BME280;13742;49.306;8.636;2023-10-09T05:07:42;100952.68;;;14.97;80.21
25944;BME280;13742;49.306;8.636;2023-10-09T05:08:30;100951.26;;;14.95;80.38
25944;BME280;13742;49.306;8.636;2023-10-09T05:09:42;100944.83;;;14.95;80.04
25944;BME280;13742;49.306;8.636;2023-10-09T05:10:27;100948.86;;;14.94;79.88
25944;BME280;13742;49.306;8.636;2023-10-09T05:11:32;100947.11;;;14.95;80.20
25944;BME280;13742;49.306;8.636;2023-10-09T05:12:29;100944.45;;;14.95;80.37
25944;BME280;13742;49.306;8.636;2023-10-09T05:13:33;100945.28;;;14.95;80.25
25944;BME280;13742;49.306;8.636;2023-10-09T05:14:27;100940.44;;;14.94;80.04